sensor_id;sensor_type;location;lat;lon;timestamp;temperature;humidity
85671;DHT22;76102;50.890;3.932;2024-03-02T00:01:23;5.90;91.60
85671;DHT22;76102;50.890;3.932;2024-03-02T00:03:49;6.00;91.50
85671;DHT22;76102;50.890;3.932;2024-03-02T00:06:20;6.00;91.30
85671;DHT22;76102;50.890;3.932;2024-03-02T00:08:45;6.10;91.20
85671;DHT22;76102;50.890;3.932;2024-03-02T00:11:16;6.10;91.00
85671;DHT22;76102;50.890;3.932;2024-03-02T00:13:42;6.10;90.70
85671;DHT22;76102;50.890;3.932;2024-03-02T00:16:07;6.10;91.10
85671;DHT22;76102;50.890;3.932;2024-03-02T00:18:38;6.10;91.00
85671;DHT22;76102;50.890;3.932;2024-03-02T00:21:06;6.20;90.40
85671;DHT22;76102;50.890;3.932;2024-03-02T00:23:35;6.20;90.20
85671;DHT22;76102;50.890;3.932;2024-03-02T00:26:04;6.30;90.40
85671;DHT22;76102;50.890;3.932;2024-03-02T00:28:34;6.20;90.10
85671;DHT22;76102;50.890;3.932;2024-03-02T00:33:37;6.10;90.20
85671;DHT22;76102;50.890;3.932;2024-03-02T00:36:05;6.10;90.10
85671;DHT22;76102;50.890;3.932;2024-03-02T00:38:44;6.10;90.30
85671;DHT22;76102;50.890;3.932;2024-03-02T00:41:24;6.20;90.20
85671;DHT22;76102;50.890;3.932;2024-03-02T00:44:04;6.20;90.10
85671;DHT22;76102;50.890;3.932;2024-03-02T00:46:38;6.20;90.20
85671;DHT22;76102;50.890;3.932;2024-03-02T00:49:38;6.20;90.00
85671;DHT22;76102;50.890;3.932;2024-03-02T00:51:57;6.20;89.60
85671;DHT22;76102;50.890;3.932;2024-03-02T00:54:25;6.10;90.20
85671;DHT22;76102;50.890;3.932;2024-03-02T00:56:54;6.00;90.20
85671;DHT22;76102;50.890;3.932;2024-03-02T00:59:23;6.00;90.30
85671;DHT22;76102;50.890;3.932;2024-03-02T01:01:51;5.80;90.40
85671;DHT22;76102;50.890;3.932;2024-03-02T01:04:17;5.80;90.60
85671;DHT22;76102;50.890;3.932;2024-03-02T01:06:43;5.80;90.70
85671;DHT22;76102;50.890;3.932;2024-03-02T01:09:09;5.90;90.80
85671;DHT22;76102;50.890;3.932;2024-03-02T01:11:34;6.00;90.80
85671;DHT22;76102;50.890;3.932;2024-03-02T01:14:00;6.00;90.20
85671;DHT22;76102;50.890;3.932;2024-03-02T01:16:28;6.00;90.40
85671;DHT22;76102;50.890;3.932;2024-03-02T01:18:56;6.10;90.20
85671;DHT22;76102;50.890;3.932;2024-03-02T01:21:21;6.00;90.20
85671;DHT22;76102;50.890;3.932;2024-03-02T01:23:47;6.00;90.70
85671;DHT22;76102;50.890;3.932;2024-03-02T01:26:13;5.90;90.30
85671;DHT22;76102;50.890;3.932;2024-03-02T01:28:41;5.90;90.30
85671;DHT22;76102;50.890;3.932;2024-03-02T01:31:07;5.90;90.10
85671;DHT22;76102;50.890;3.932;2024-03-02T01:33:32;5.80;90.30
85671;DHT22;76102;50.890;3.932;2024-03-02T01:35:58;5.70;90.50
85671;DHT22;76102;50.890;3.932;2024-03-02T01:38:24;5.60;90.50
85671;DHT22;76102;50.890;3.932;2024-03-02T01:40:49;5.60;90.70
85671;DHT22;76102;50.890;3.932;2024-03-02T01:43:15;5.50;90.70
85671;DHT22;76102;50.890;3.932;2024-03-02T01:45:45;5.50;90.60
85671;DHT22;76102;50.890;3.932;2024-03-02T01:48:11;5.50;90.50
85671;DHT22;76102;50.890;3.932;2024-03-02T01:50:37;5.60;90.40
85671;DHT22;76102;50.890;3.932;2024-03-02T01:53:05;5.60;90.30
85671;DHT22;76102;50.890;3.932;2024-03-02T01:55:30;5.50;90.10
85671;DHT22;76102;50.890;3.932;2024-03-02T01:57:57;5.50;90.20
85671;DHT22;76102;50.890;3.932;2024-03-02T02:00:25;5.40;90.30
85671;DHT22;76102;50.890;3.932;2024-03-02T02:02:53;5.40;90.50
85671;DHT22;76102;50.890;3.932;2024-03-02T02:05:23;5.40;90.40
85671;DHT22;76102;50.890;3.932;2024-03-02T02:07:51;5.50;90.40
85671;DHT22;76102;50.890;3.932;2024-03-02T02:10:19;5.50;90.30
85671;DHT22;76102;50.890;3.932;2024-03-02T02:12:47;5.60;90.30
85671;DHT22;76102;50.890;3.932;2024-03-02T02:15:28;5.70;90.30
85671;DHT22;76102;50.890;3.932;2024-03-02T02:17:56;5.80;89.90
85671;DHT22;76102;50.890;3.932;2024-03-02T02:20:22;5.80;90.00
85671;DHT22;76102;50.890;3.932;2024-03-02T02:23:00;5.80;90.00
85671;DHT22;76102;50.890;3.932;2024-03-02T02:25:26;6.00;90.00
85671;DHT22;76102;50.890;3.932;2024-03-02T02:27:52;6.10;89.50
85671;DHT22;76102;50.890;3.932;2024-03-02T02:30:22;6.10;89.10
85671;DHT22;76102;50.890;3.932;2024-03-02T02:32:48;6.00;89.10
85671;DHT22;76102;50.890;3.932;2024-03-02T02:35:19;6.10;89.10
85671;DHT22;76102;50.890;3.932;2024-03-02T02:37:46;6.20;88.50
85671;DHT22;76102;50.890;3.932;2024-03-02T02:40:15;6.20;87.60
85671;DHT22;76102;50.890;3.932;2024-03-02T02:42:41;6.10;88.40
85671;DHT22;76102;50.890;3.932;2024-03-02T02:45:09;6.10;88.40
85671;DHT22;76102;50.890;3.932;2024-03-02T02:47:36;6.10;88.60
85671;DHT22;76102;50.890;3.932;2024-03-02T02:50:03;6.20;88.40
85671;DHT22;76102;50.890;3.932;2024-03-02T02:52:33;6.20;87.90
85671;DHT22;76102;50.890;3.932;2024-03-02T02:54:59;6.30;87.70
85671;DHT22;76102;50.890;3.932;2024-03-02T02:57:25;6.30;87.40
85671;DHT22;76102;50.890;3.932;2024-03-02T02:59:50;6.20;87.90
85671;DHT22;76102;50.890;3.932;2024-03-02T03:02:16;6.20;87.90
85671;DHT22;76102;50.890;3.932;2024-03-02T03:04:42;6.10;86.90
85671;DHT22;76102;50.890;3.932;2024-03-02T03:07:07;6.10;87.50
85671;DHT22;76102;50.890;3.932;2024-03-02T03:09:33;6.00;87.90
85671;DHT22;76102;50.890;3.932;2024-03-02T03:11:58;5.90;88.40
85671;DHT22;76102;50.890;3.932;2024-03-02T03:14:29;6.00;88.30
85671;DHT22;76102;50.890;3.932;2024-03-02T03:16:55;6.00;87.60
85671;DHT22;76102;50.890;3.932;2024-03-02T03:19:20;6.10;87.40
85671;DHT22;76102;50.890;3.932;2024-03-02T03:21:46;6.10;87.50
85671;DHT22;76102;50.890;3.932;2024-03-02T03:24:12;6.10;87.30
85671;DHT22;76102;50.890;3.932;2024-03-02T03:26:37;6.10;87.10
85671;DHT22;76102;50.890;3.932;2024-03-02T03:29:03;6.10;87.50
85671;DHT22;76102;50.890;3.932;2024-03-02T03:31:29;6.10;86.70
85671;DHT22;76102;50.890;3.932;2024-03-02T03:33:55;6.10;87.20
85671;DHT22;76102;50.890;3.932;2024-03-02T03:36:24;6.10;87.00
85671;DHT22;76102;50.890;3.932;2024-03-02T03:38:49;6.20;87.10
85671;DHT22;76102;50.890;3.932;2024-03-02T03:41:19;6.10;86.50
85671;DHT22;76102;50.890;3.932;2024-03-02T03:43:47;6.10;86.80
85671;DHT22;76102;50.890;3.932;2024-03-02T03:46:12;6.20;87.20
85671;DHT22;76102;50.890;3.932;2024-03-02T03:48:40;6.10;86.50
85671;DHT22;76102;50.890;3.932;2024-03-02T03:51:09;6.20;86.60
85671;DHT22;76102;50.890;3.932;2024-03-02T03:53:35;6.30;86.20
85671;DHT22;76102;50.890;3.932;2024-03-02T03:56:03;6.20;86.40
85671;DHT22;76102;50.890;3.932;2024-03-02T03:58:31;6.20;86.30
85671;DHT22;76102;50.890;3.932;2024-03-02T04:00:57;6.20;86.20
85671;DHT22;76102;50.890;3.932;2024-03-02T04:03:23;6.20;85.00
85671;DHT22;76102;50.890;3.932;2024-03-02T04:05:51;6.30;85.20
85671;DHT22;76102;50.890;3.932;2024-03-02T04:08:16;6.30;85.20
85671;DHT22;76102;50.890;3.932;2024-03-02T04:10:42;6.30;85.40
85671;DHT22;76102;50.890;3.932;2024-03-02T04:13:10;6.30;84.80
85671;DHT22;76102;50.890;3.932;2024-03-02T04:15:36;6.30;85.30
85671;DHT22;76102;50.890;3.932;2024-03-02T04:18:01;6.20;85.00
85671;DHT22;76102;50.890;3.932;2024-03-02T04:20:27;6.20;85.00
85671;DHT22;76102;50.890;3.932;2024-03-02T04:22:52;6.20;84.80
85671;DHT22;76102;50.890;3.932;2024-03-02T04:25:18;6.10;84.70
85671;DHT22;76102;50.890;3.932;2024-03-02T04:27:45;5.90;85.30
85671;DHT22;76102;50.890;3.932;2024-03-02T04:30:13;5.80;85.70
85671;DHT22;76102;50.890;3.932;2024-03-02T04:32:39;5.80;85.90
85671;DHT22;76102;50.890;3.932;2024-03-02T04:35:07;5.80;85.40
85671;DHT22;76102;50.890;3.932;2024-03-02T04:37:38;5.70;85.70
85671;DHT22;76102;50.890;3.932;2024-03-02T04:40:05;5.80;85.30
85671;DHT22;76102;50.890;3.932;2024-03-02T04:42:34;5.60;86.20
85671;DHT22;76102;50.890;3.932;2024-03-02T04:45:02;5.50;86.40
85671;DHT22;76102;50.890;3.932;2024-03-02T04:47:32;5.50;86.40
85671;DHT22;76102;50.890;3.932;2024-03-02T04:49:58;5.40;87.10
85671;DHT22;76102;50.890;3.932;2024-03-02T04:52:26;5.30;87.30
85671;DHT22;76102;50.890;3.932;2024-03-02T04:54:51;5.30;87.60
85671;DHT22;76102;50.890;3.932;2024-03-02T04:57:45;5.20;88.00
85671;DHT22;76102;50.890;3.932;2024-03-02T05:00:16;5.20;88.00
85671;DHT22;76102;50.890;3.932;2024-03-02T05:02:44;5.20;87.90
85671;DHT22;76102;50.890;3.932;2024-03-02T05:05:12;5.20;88.20
85671;DHT22;76102;50.890;3.932;2024-03-02T05:07:38;5.10;88.60
85671;DHT22;76102;50.890;3.932;2024-03-02T05:10:06;5.00;88.90
85671;DHT22;76102;50.890;3.932;2024-03-02T05:12:32;5.10;88.60
85671;DHT22;76102;50.890;3.932;2024-03-02T05:15:22;5.10;88.40
85671;DHT22;76102;50.890;3.932;2024-03-02T05:17:48;5.10;88.50
85671;DHT22;76102;50.890;3.932;2024-03-02T05:20:14;5.10;88.60
85671;DHT22;76102;50.890;3.932;2024-03-02T05:22:40;5.10;88.60
85671;DHT22;76102;50.890;3.932;2024-03-02T05:25:10;5.10;88.50
85671;DHT22;76102;50.890;3.932;2024-03-02T05:27:36;5.10;88.50
85671;DHT22;76102;50.890;3.932;2024-03-02T05:30:02;5.10;88.50
85671;DHT22;76102;50.890;3.932;2024-03-02T05:32:34;5.00;89.10
85671;DHT22;76102;50.890;3.932;2024-03-02T05:35:02;5.00;89.10
85671;DHT22;76102;50.890;3.932;2024-03-02T05:37:31;5.00;89.60
85671;DHT22;76102;50.890;3.932;2024-03-02T05:40:01;5.00;89.50
85671;DHT22;76102;50.890;3.932;2024-03-02T05:42:28;5.00;89.00
85671;DHT22;76102;50.890;3.932;2024-03-02T05:44:53;4.90;89.20
85671;DHT22;76102;50.890;3.932;2024-03-02T05:47:19;4.90;89.30
85671;DHT22;76102;50.890;3.932;2024-03-02T05:49:47;4.90;89.10
85671;DHT22;76102;50.890;3.932;2024-03-02T05:52:13;4.90;89.60
85671;DHT22;76102;50.890;3.932;2024-03-02T05:54:39;4.80;89.90
85671;DHT22;76102;50.890;3.932;2024-03-02T05:57:07;4.90;89.50
85671;DHT22;76102;50.890;3.932;2024-03-02T05:59:51;4.90;88.90
85671;DHT22;76102;50.890;3.932;2024-03-02T06:02:17;4.90;89.40
85671;DHT22;76102;50.890;3.932;2024-03-02T06:04:43;4.80;89.20
85671;DHT22;76102;50.890;3.932;2024-03-02T06:07:08;4.80;89.70
85671;DHT22;76102;50.890;3.932;2024-03-02T06:09:34;4.90;89.60
85671;DHT22;76102;50.890;3.932;2024-03-02T06:12:02;4.90;89.30
85671;DHT22;76102;50.890;3.932;2024-03-02T06:14:32;4.80;89.40
85671;DHT22;76102;50.890;3.932;2024-03-02T06:16:58;4.70;89.70
85671;DHT22;76102;50.890;3.932;2024-03-02T06:19:27;4.70;90.00
85671;DHT22;76102;50.890;3.932;2024-03-02T06:21:53;4.80;89.60
85671;DHT22;76102;50.890;3.932;2024-03-02T06:24:18;4.80;89.10
85671;DHT22;76102;50.890;3.932;2024-03-02T06:26:46;4.80;89.20
85671;DHT22;76102;50.890;3.932;2024-03-02T06:29:12;4.90;89.00
85671;DHT22;76102;50.890;3.932;2024-03-02T06:31:38;4.80;89.40
85671;DHT22;76102;50.890;3.932;2024-03-02T06:34:05;4.80;89.70
85671;DHT22;76102;50.890;3.932;2024-03-02T06:36:31;4.80;89.80
85671;DHT22;76102;50.890;3.932;2024-03-02T06:39:01;4.80;89.60
85671;DHT22;76102;50.890;3.932;2024-03-02T06:41:27;4.80;89.60
85671;DHT22;76102;50.890;3.932;2024-03-02T06:43:55;4.70;89.80
85671;DHT22;76102;50.890;3.932;2024-03-02T06:46:25;4.80;89.40
85671;DHT22;76102;50.890;3.932;2024-03-02T06:48:54;4.80;89.00
85671;DHT22;76102;50.890;3.932;2024-03-02T06:51:22;4.90;88.90
85671;DHT22;76102;50.890;3.932;2024-03-02T06:53:48;4.90;88.60
85671;DHT22;76102;50.890;3.932;2024-03-02T06:56:16;4.90;88.80
85671;DHT22;76102;50.890;3.932;2024-03-02T06:58:46;4.80;89.30
85671;DHT22;76102;50.890;3.932;2024-03-02T07:01:12;5.00;89.00
85671;DHT22;76102;50.890;3.932;2024-03-02T07:03:40;5.00;88.20
85671;DHT22;76102;50.890;3.932;2024-03-02T07:06:06;5.10;88.10
85671;DHT22;76102;50.890;3.932;2024-03-02T07:08:34;5.00;88.70
85671;DHT22;76102;50.890;3.932;2024-03-02T07:11:02;5.10;88.70
85671;DHT22;76102;50.890;3.932;2024-03-02T07:13:28;5.10;88.80
85671;DHT22;76102;50.890;3.932;2024-03-02T07:15:53;5.20;89.00
85671;DHT22;76102;50.890;3.932;2024-03-02T07:18:34;5.30;88.90
85671;DHT22;76102;50.890;3.932;2024-03-02T07:21:07;5.70;87.90
85671;DHT22;76102;50.890;3.932;2024-03-02T07:23:35;5.90;87.00
85671;DHT22;76102;50.890;3.932;2024-03-02T07:26:00;6.20;85.90
85671;DHT22;76102;50.890;3.932;2024-03-02T07:28:29;6.20;85.30
85671;DHT22;76102;50.890;3.932;2024-03-02T07:31:02;6.40;85.40
85671;DHT22;76102;50.890;3.932;2024-03-02T07:33:30;6.60;83.90
85671;DHT22;76102;50.890;3.932;2024-03-02T07:35:56;6.80;83.40
85671;DHT22;76102;50.890;3.932;2024-03-02T07:38:22;6.80;82.70
85671;DHT22;76102;50.890;3.932;2024-03-02T07:40:51;6.70;83.50
85671;DHT22;76102;50.890;3.932;2024-03-02T07:43:17;6.80;83.40
85671;DHT22;76102;50.890;3.932;2024-03-02T07:45:46;7.00;82.00
85671;DHT22;76102;50.890;3.932;2024-03-02T07:48:12;7.00;82.10
85671;DHT22;76102;50.890;3.932;2024-03-02T07:50:43;7.00;81.90
85671;DHT22;76102;50.890;3.932;2024-03-02T07:53:10;7.40;81.60
85671;DHT22;76102;50.890;3.932;2024-03-02T07:55:39;7.80;79.00
85671;DHT22;76102;50.890;3.932;2024-03-02T07:58:04;8.50;76.50
85671;DHT22;76102;50.890;3.932;2024-03-02T08:00:30;9.20;73.90
85671;DHT22;76102;50.890;3.932;2024-03-02T08:02:59;9.90;73.00
85671;DHT22;76102;50.890;3.932;2024-03-02T08:05:24;10.80;69.90
85671;DHT22;76102;50.890;3.932;2024-03-02T08:07:50;11.40;66.80
85671;DHT22;76102;50.890;3.932;2024-03-02T08:10:20;11.80;65.90
85671;DHT22;76102;50.890;3.932;2024-03-02T08:12:48;12.00;65.10
85671;DHT22;76102;50.890;3.932;2024-03-02T08:15:14;11.40;66.00
85671;DHT22;76102;50.890;3.932;2024-03-02T08:17:42;12.00;65.40
85671;DHT22;76102;50.890;3.932;2024-03-02T08:20:17;12.10;63.50
85671;DHT22;76102;50.890;3.932;2024-03-02T08:22:42;12.60;62.40
85671;DHT22;76102;50.890;3.932;2024-03-02T08:25:11;12.70;61.90
85671;DHT22;76102;50.890;3.932;2024-03-02T08:27:37;12.40;61.60
85671;DHT22;76102;50.890;3.932;2024-03-02T08:30:03;11.40;64.70
85671;DHT22;76102;50.890;3.932;2024-03-02T08:32:31;10.50;67.60
85671;DHT22;76102;50.890;3.932;2024-03-02T08:34:59;10.80;68.00
85671;DHT22;76102;50.890;3.932;2024-03-02T08:37:27;10.40;68.70
85671;DHT22;76102;50.890;3.932;2024-03-02T08:39:53;10.20;69.30
85671;DHT22;76102;50.890;3.932;2024-03-02T08:42:22;10.20;68.80
85671;DHT22;76102;50.890;3.932;2024-03-02T08:44:51;10.00;70.60
85671;DHT22;76102;50.890;3.932;2024-03-02T08:47:19;9.40;71.80
85671;DHT22;76102;50.890;3.932;2024-03-02T08:49:47;9.00;73.50
85671;DHT22;76102;50.890;3.932;2024-03-02T08:52:13;9.10;73.50
85671;DHT22;76102;50.890;3.932;2024-03-02T08:54:41;9.70;72.80
85671;DHT22;76102;50.890;3.932;2024-03-02T08:57:06;10.50;70.50
85671;DHT22;76102;50.890;3.932;2024-03-02T08:59:32;11.50;67.30
85671;DHT22;76102;50.890;3.932;2024-03-02T09:02:00;11.40;66.00
85671;DHT22;76102;50.890;3.932;2024-03-02T09:04:29;10.50;68.20
85671;DHT22;76102;50.890;3.932;2024-03-02T09:06:57;10.40;69.40
85671;DHT22;76102;50.890;3.932;2024-03-02T09:09:23;11.10;69.70
85671;DHT22;76102;50.890;3.932;2024-03-02T09:11:51;12.00;64.50
85671;DHT22;76102;50.890;3.932;2024-03-02T09:14:17;11.80;63.80
85671;DHT22;76102;50.890;3.932;2024-03-02T09:16:45;11.90;66.40
85671;DHT22;76102;50.890;3.932;2024-03-02T09:19:10;11.90;64.80
85671;DHT22;76102;50.890;3.932;2024-03-02T09:21:36;11.50;65.70
85671;DHT22;76102;50.890;3.932;2024-03-02T09:24:06;11.80;65.70
85671;DHT22;76102;50.890;3.932;2024-03-02T09:26:32;12.20;64.20
85671;DHT22;76102;50.890;3.932;2024-03-02T09:28:58;12.60;61.10
85671;DHT22;76102;50.890;3.932;2024-03-02T09:31:23;12.60;62.60
85671;DHT22;76102;50.890;3.932;2024-03-02T09:33:49;12.70;63.20
85671;DHT22;76102;50.890;3.932;2024-03-02T09:36:22;12.60;62.50
85671;DHT22;76102;50.890;3.932;2024-03-02T09:38:50;12.20;63.20
85671;DHT22;76102;50.890;3.932;2024-03-02T09:41:18;11.80;64.70
85671;DHT22;76102;50.890;3.932;2024-03-02T09:43:46;12.50;63.80
85671;DHT22;76102;50.890;3.932;2024-03-02T09:46:12;12.90;63.60
85671;DHT22;76102;50.890;3.932;2024-03-02T09:48:40;13.30;61.70
85671;DHT22;76102;50.890;3.932;2024-03-02T09:51:06;12.80;59.00
85671;DHT22;76102;50.890;3.932;2024-03-02T09:53:34;13.20;59.70
85671;DHT22;76102;50.890;3.932;2024-03-02T09:56:05;12.90;61.30
85671;DHT22;76102;50.890;3.932;2024-03-02T09:58:35;12.30;63.00
85671;DHT22;76102;50.890;3.932;2024-03-02T10:01:01;12.20;64.10
85671;DHT22;76102;50.890;3.932;2024-03-02T10:03:31;11.90;66.60
85671;DHT22;76102;50.890;3.932;2024-03-02T10:06:27;12.00;64.90
85671;DHT22;76102;50.890;3.932;2024-03-02T10:08:54;12.50;64.40
85671;DHT22;76102;50.890;3.932;2024-03-02T10:11:31;12.30;64.00
85671;DHT22;76102;50.890;3.932;2024-03-02T10:14:09;11.60;65.40
85671;DHT22;76102;50.890;3.932;2024-03-02T10:16:40;11.50;66.00
85671;DHT22;76102;50.890;3.932;2024-03-02T10:19:23;11.90;67.30
85671;DHT22;76102;50.890;3.932;2024-03-02T10:21:53;12.30;63.60
85671;DHT22;76102;50.890;3.932;2024-03-02T10:24:21;12.00;64.90
85671;DHT22;76102;50.890;3.932;2024-03-02T10:26:47;11.90;65.30
85671;DHT22;76102;50.890;3.932;2024-03-02T10:29:13;11.90;64.60
85671;DHT22;76102;50.890;3.932;2024-03-02T10:31:44;12.20;65.40
85671;DHT22;76102;50.890;3.932;2024-03-02T10:34:11;11.80;65.90
85671;DHT22;76102;50.890;3.932;2024-03-02T10:36:41;11.50;66.70
85671;DHT22;76102;50.890;3.932;2024-03-02T10:39:07;11.50;66.40
85671;DHT22;76102;50.890;3.932;2024-03-02T10:41:38;11.70;66.70
85671;DHT22;76102;50.890;3.932;2024-03-02T10:44:06;11.90;66.30
85671;DHT22;76102;50.890;3.932;2024-03-02T10:46:33;11.40;65.90
85671;DHT22;76102;50.890;3.932;2024-03-02T10:49:03;11.60;68.50
85671;DHT22;76102;50.890;3.932;2024-03-02T10:51:34;11.60;67.70
85671;DHT22;76102;50.890;3.932;2024-03-02T10:54:02;12.00;65.90
85671;DHT22;76102;50.890;3.932;2024-03-02T10:56:43;11.80;66.20
85671;DHT22;76102;50.890;3.932;2024-03-02T10:59:27;11.70;66.60
85671;DHT22;76102;50.890;3.932;2024-03-02T11:02:00;11.70;66.00
85671;DHT22;76102;50.890;3.932;2024-03-02T11:04:30;11.70;66.30
85671;DHT22;76102;50.890;3.932;2024-03-02T11:07:09;11.80;65.30
85671;DHT22;76102;50.890;3.932;2024-03-02T11:09:40;12.00;67.20
85671;DHT22;76102;50.890;3.932;2024-03-02T11:12:12;11.70;65.50
85671;DHT22;76102;50.890;3.932;2024-03-02T11:14:41;11.60;66.80
85671;DHT22;76102;50.890;3.932;2024-03-02T11:17:14;11.70;66.10
85671;DHT22;76102;50.890;3.932;2024-03-02T11:19:44;11.80;65.30
85671;DHT22;76102;50.890;3.932;2024-03-02T11:22:11;11.90;65.50
85671;DHT22;76102;50.890;3.932;2024-03-02T11:24:39;12.00;65.90
85671;DHT22;76102;50.890;3.932;2024-03-02T11:35:29;12.00;64.20
85671;DHT22;76102;50.890;3.932;2024-03-02T11:37:54;11.70;65.10
85671;DHT22;76102;50.890;3.932;2024-03-02T11:40:24;11.70;65.00
85671;DHT22;76102;50.890;3.932;2024-03-02T11:42:51;11.80;66.00
85671;DHT22;76102;50.890;3.932;2024-03-02T11:45:17;12.10;66.00
85671;DHT22;76102;50.890;3.932;2024-03-02T11:47:54;12.30;64.70
85671;DHT22;76102;50.890;3.932;2024-03-02T11:50:42;12.00;65.50
85671;DHT22;76102;50.890;3.932;2024-03-02T11:53:09;11.90;66.20
85671;DHT22;76102;50.890;3.932;2024-03-02T11:55:36;11.90;64.80
85671;DHT22;76102;50.890;3.932;2024-03-02T11:58:05;11.50;65.60
85671;DHT22;76102;50.890;3.932;2024-03-02T12:00:35;11.40;67.30
85671;DHT22;76102;50.890;3.932;2024-03-02T12:03:12;11.10;68.90
85671;DHT22;76102;50.890;3.932;2024-03-02T12:05:40;11.10;68.00
85671;DHT22;76102;50.890;3.932;2024-03-02T12:08:08;11.10;70.30
85671;DHT22;76102;50.890;3.932;2024-03-02T12:10:35;11.10;67.80
85671;DHT22;76102;50.890;3.932;2024-03-02T12:13:03;11.10;69.70
85671;DHT22;76102;50.890;3.932;2024-03-02T12:15:34;11.00;68.60
85671;DHT22;76102;50.890;3.932;2024-03-02T12:18:01;11.00;72.10
85671;DHT22;76102;50.890;3.932;2024-03-02T12:20:29;10.70;72.60
85671;DHT22;76102;50.890;3.932;2024-03-02T12:22:59;10.50;75.20
85671;DHT22;76102;50.890;3.932;2024-03-02T12:25:25;10.60;77.10
85671;DHT22;76102;50.890;3.932;2024-03-02T12:27:58;10.50;77.40
85671;DHT22;76102;50.890;3.932;2024-03-02T12:30:27;10.40;76.00
85671;DHT22;76102;50.890;3.932;2024-03-02T12:32:54;10.30;76.50
85671;DHT22;76102;50.890;3.932;2024-03-02T12:35:20;10.20;78.90
85671;DHT22;76102;50.890;3.932;2024-03-02T12:37:50;10.30;79.40
85671;DHT22;76102;50.890;3.932;2024-03-02T12:40:17;10.30;78.50
85671;DHT22;76102;50.890;3.932;2024-03-02T12:42:46;10.30;79.80
85671;DHT22;76102;50.890;3.932;2024-03-02T12:45:13;10.30;80.80
85671;DHT22;76102;50.890;3.932;2024-03-02T12:47:45;10.10;78.50
85671;DHT22;76102;50.890;3.932;2024-03-02T12:50:11;10.00;80.00
85671;DHT22;76102;50.890;3.932;2024-03-02T12:52:39;10.00;81.60
85671;DHT22;76102;50.890;3.932;2024-03-02T12:55:05;10.10;80.10
85671;DHT22;76102;50.890;3.932;2024-03-02T12:57:32;10.10;80.60
85671;DHT22;76102;50.890;3.932;2024-03-02T13:00:04;9.90;81.40
85671;DHT22;76102;50.890;3.932;2024-03-02T13:02:39;10.00;81.50
85671;DHT22;76102;50.890;3.932;2024-03-02T13:05:06;10.10;80.40
85671;DHT22;76102;50.890;3.932;2024-03-02T13:07:36;10.10;80.50
85671;DHT22;76102;50.890;3.932;2024-03-02T13:10:02;10.00;80.50
85671;DHT22;76102;50.890;3.932;2024-03-02T13:12:30;9.80;80.80
85671;DHT22;76102;50.890;3.932;2024-03-02T13:14:58;9.90;79.70
85671;DHT22;76102;50.890;3.932;2024-03-02T13:17:28;10.10;77.20
85671;DHT22;76102;50.890;3.932;2024-03-02T13:19:55;10.20;79.70
85671;DHT22;76102;50.890;3.932;2024-03-02T13:22:24;10.50;80.20
85671;DHT22;76102;50.890;3.932;2024-03-02T13:24:53;10.70;76.20
85671;DHT22;76102;50.890;3.932;2024-03-02T13:27:23;10.80;77.00
85671;DHT22;76102;50.890;3.932;2024-03-02T13:29:49;10.70;76.10
85671;DHT22;76102;50.890;3.932;2024-03-02T13:32:18;10.40;77.10
85671;DHT22;76102;50.890;3.932;2024-03-02T13:34:49;10.40;77.90
85671;DHT22;76102;50.890;3.932;2024-03-02T13:37:20;10.30;78.70
85671;DHT22;76102;50.890;3.932;2024-03-02T13:39:49;10.30;80.30
85671;DHT22;76102;50.890;3.932;2024-03-02T13:42:15;10.20;80.80
85671;DHT22;76102;50.890;3.932;2024-03-02T13:44:43;10.20;82.00
85671;DHT22;76102;50.890;3.932;2024-03-02T13:47:11;10.20;81.20
85671;DHT22;76102;50.890;3.932;2024-03-02T13:49:36;10.40;82.20
85671;DHT22;76102;50.890;3.932;2024-03-02T13:52:07;10.50;80.50
85671;DHT22;76102;50.890;3.932;2024-03-02T13:54:39;10.40;78.60
85671;DHT22;76102;50.890;3.932;2024-03-02T13:57:08;10.60;79.50
85671;DHT22;76102;50.890;3.932;2024-03-02T13:59:34;10.60;79.80
85671;DHT22;76102;50.890;3.932;2024-03-02T14:02:02;10.50;80.10
85671;DHT22;76102;50.890;3.932;2024-03-02T14:04:30;10.60;79.70
85671;DHT22;76102;50.890;3.932;2024-03-02T14:06:57;10.70;79.20
85671;DHT22;76102;50.890;3.932;2024-03-02T14:09:23;10.80;77.50
85671;DHT22;76102;50.890;3.932;2024-03-02T14:11:50;10.70;75.60
85671;DHT22;76102;50.890;3.932;2024-03-02T14:14:17;10.60;76.20
85671;DHT22;76102;50.890;3.932;2024-03-02T14:16:45;10.70;78.30
85671;DHT22;76102;50.890;3.932;2024-03-02T14:19:11;10.70;79.20
85671;DHT22;76102;50.890;3.932;2024-03-02T14:21:38;10.80;79.40
85671;DHT22;76102;50.890;3.932;2024-03-02T14:24:04;10.90;77.80
85671;DHT22;76102;50.890;3.932;2024-03-02T14:26:32;11.00;77.40
85671;DHT22;76102;50.890;3.932;2024-03-02T14:28:59;10.90;77.80
85671;DHT22;76102;50.890;3.932;2024-03-02T14:31:26;10.90;77.80
85671;DHT22;76102;50.890;3.932;2024-03-02T14:33:53;10.70;78.30
85671;DHT22;76102;50.890;3.932;2024-03-02T14:36:19;10.70;78.50
85671;DHT22;76102;50.890;3.932;2024-03-02T14:38:51;10.80;76.70
85671;DHT22;76102;50.890;3.932;2024-03-02T14:41:17;10.90;76.00
85671;DHT22;76102;50.890;3.932;2024-03-02T14:43:43;10.90;75.80
85671;DHT22;76102;50.890;3.932;2024-03-02T14:46:11;10.80;76.70
85671;DHT22;76102;50.890;3.932;2024-03-02T14:48:41;10.70;76.10
85671;DHT22;76102;50.890;3.932;2024-03-02T14:51:07;10.60;75.90
85671;DHT22;76102;50.890;3.932;2024-03-02T14:53:35;10.60;74.90
85671;DHT22;76102;50.890;3.932;2024-03-02T14:56:04;10.70;75.50
85671;DHT22;76102;50.890;3.932;2024-03-02T14:58:30;10.70;75.50
85671;DHT22;76102;50.890;3.932;2024-03-02T15:01:00;10.70;77.00
85671;DHT22;76102;50.890;3.932;2024-03-02T15:03:26;10.70;75.80
85671;DHT22;76102;50.890;3.932;2024-03-02T15:05:52;10.70;75.90
85671;DHT22;76102;50.890;3.932;2024-03-02T15:08:21;10.60;75.60
85671;DHT22;76102;50.890;3.932;2024-03-02T15:10:47;10.60;75.80
85671;DHT22;76102;50.890;3.932;2024-03-02T15:13:12;10.60;76.10
85671;DHT22;76102;50.890;3.932;2024-03-02T15:15:38;10.70;76.10
85671;DHT22;76102;50.890;3.932;2024-03-02T15:18:06;10.80;73.30
85671;DHT22;76102;50.890;3.932;2024-03-02T15:20:32;10.80;74.90
85671;DHT22;76102;50.890;3.932;2024-03-02T15:23:00;10.80;73.30
85671;DHT22;76102;50.890;3.932;2024-03-02T15:25:27;11.00;74.70
85671;DHT22;76102;50.890;3.932;2024-03-02T15:27:53;11.00;75.50
85671;DHT22;76102;50.890;3.932;2024-03-02T15:30:20;10.90;73.40
85671;DHT22;76102;50.890;3.932;2024-03-02T15:32:48;11.00;73.50
85671;DHT22;76102;50.890;3.932;2024-03-02T15:35:16;11.00;74.20
85671;DHT22;76102;50.890;3.932;2024-03-02T15:37:41;10.90;74.20
85671;DHT22;76102;50.890;3.932;2024-03-02T15:40:07;11.00;73.30
85671;DHT22;76102;50.890;3.932;2024-03-02T15:42:34;10.90;75.60
85671;DHT22;76102;50.890;3.932;2024-03-02T15:45:02;11.00;75.30
85671;DHT22;76102;50.890;3.932;2024-03-02T15:47:33;11.10;73.50
85671;DHT22;76102;50.890;3.932;2024-03-02T15:50:04;11.10;73.50
85671;DHT22;76102;50.890;3.932;2024-03-02T15:52:32;11.00;74.90
85671;DHT22;76102;50.890;3.932;2024-03-02T15:55:02;11.00;75.30
85671;DHT22;76102;50.890;3.932;2024-03-02T15:57:31;11.10;75.00